Time;durP1;ratioP1;P1;durP2;ratioP2;P2;SDS_P1;SDS_P2;PMS_P1;PMS_P2;Temp;Humidity;BMP_temperature;BMP_pressure;BME280_temperature;BME280_humidity;BME280_pressure;Samples;Min_cycle;Max_cycle;Signal;HPM_P1;HPM_P2
2023/04/11 00:01:23;;;;;;;;;;;;;;;8.65;65.63;94408.75;4191196;28;19936;-49
2023/04/11 00:03:24;;;;;;;;;;;;;;;8.65;65.08;94407.91;4190967;28;19950;-51
2023/04/11 00:05:26;;;;;;;;;;;;;;;8.58;65.35;94395.50;4191617;28;20251;-52
2023/04/11 00:07:28;;;;;;;;;;;;;;;8.51;66.15;94397.06;4194646;28;19978;-50
2023/04/11 00:09:30;;;;;;;;;;;;;;;8.53;66.36;94400.34;4194613;28;20030;-48
2023/04/11 00:11:31;;;;;;;;;;;;;;;8.45;66.93;94399.47;4194466;28;20015;-50
2023/04/11 00:13:33;;;;;;;;;;;;;;;8.42;66.73;94391.97;4194222;28;19928;-51
2023/04/11 00:15:35;;;;;;;;;;;;;;;8.34;66.59;94390.06;4193966;28;20364;-50
2023/04/11 00:17:36;;;;;;;;;;;;;;;8.34;67.26;94395.28;4193552;28;20321;-49
2023/04/11 00:19:38;;;;;;;;;;;;;;;8.26;67.56;94384.78;4191238;28;19964;-48
2023/04/11 00:21:39;;;;;;;;;;;;;;;8.32;66.76;94379.78;4191110;28;20252;-52
2023/04/11 00:23:41;;;;;;;;;;;;;;;8.36;66.96;94383.72;4193768;28;19951;-51
2023/04/11 00:25:42;;;;;;;;;;;;;;;8.39;66.81;94385.22;4194054;28;19933;-50
2023/04/11 00:27:44;;;;;;;;;;;;;;;8.31;66.97;94387.78;4194126;28;19951;-49
2023/04/11 00:29:46;;;;;;;;;;;;;;;8.30;67.70;94379.13;4193557;28;20452;-49
2023/04/11 00:31:47;;;;;;;;;;;;;;;8.37;67.36;94384.56;4194340;28;19931;-48
2023/04/11 00:33:49;;;;;;;;;;;;;;;8.45;67.19;94382.00;4194125;28;19928;-49
2023/04/11 00:35:50;;;;;;;;;;;;;;;8.55;66.81;94376.69;4193225;28;19925;-50
2023/04/11 00:37:54;;;;;;;;;;;;;;;8.59;66.06;94378.03;4194390;28;19998;-53
2023/04/11 00:39:56;;;;;;;;;;;;;;;8.57;65.87;94378.19;4194046;28;19947;-53
2023/04/11 00:42:05;;;;;;;;;;;;;;;8.57;66.53;94375.56;4194176;28;19947;-50
2023/04/11 00:44:07;;;;;;;;;;;;;;;8.46;66.16;94375.84;4183224;28;19935;-51
2023/04/11 00:46:09;;;;;;;;;;;;;;;8.41;66.21;94378.09;4192702;28;20376;-47
2023/04/11 00:48:10;;;;;;;;;;;;;;;8.34;66.36;94379.63;4192152;28;19930;-48
2023/04/11 00:50:12;;;;;;;;;;;;;;;8.32;67.39;94376.34;4193957;28;19949;-49
2023/04/11 00:52:14;;;;;;;;;;;;;;;8.38;67.22;94384.38;4194681;28;19994;-48
2023/04/11 00:54:17;;;;;;;;;;;;;;;8.47;66.54;94381.88;4190503;28;19932;-53
2023/04/11 00:56:18;;;;;;;;;;;;;;;8.46;66.84;94382.84;4193574;28;20367;-51
2023/04/11 00:58:20;;;;;;;;;;;;;;;8.40;66.49;94373.81;4193495;28;19928;-51
2023/04/11 01:00:22;;;;;;;;;;;;;;;8.43;66.86;94381.34;4184858;28;20084;-49
2023/04/11 01:02:23;;;;;;;;;;;;;;;8.47;66.52;94374.84;4192452;28;19929;-55
2023/04/11 01:04:25;;;;;;;;;;;;;;;8.53;66.60;94371.63;4193322;28;19971;-49
2023/04/11 01:06:29;;;;;;;;;;;;;;;8.59;66.83;94385.88;4194298;28;20364;-52
2023/04/11 01:08:31;;;;;;;;;;;;;;;8.55;66.08;94381.91;4193763;28;19924;-51
2023/04/11 01:10:32;;;;;;;;;;;;;;;8.54;66.27;94382.88;4225609;28;20393;-49
2023/04/11 01:12:34;;;;;;;;;;;;;;;8.36;66.89;94382.91;4191957;28;19963;-53
2023/04/11 01:14:35;;;;;;;;;;;;;;;8.37;66.93;94377.53;4191743;28;19928;-50
2023/04/11 01:16:37;;;;;;;;;;;;;;;8.45;67.17;94384.63;4192619;28;20036;-51
2023/04/11 01:18:38;;;;;;;;;;;;;;;8.51;66.81;94385.81;4192844;28;19931;-49
2023/04/11 01:20:40;;;;;;;;;;;;;;;8.50;66.62;94385.00;4190065;28;19998;-53
2023/04/11 01:22:41;;;;;;;;;;;;;;;8.52;66.77;94390.88;4190676;28;19924;-48
2023/04/11 01:24:43;;;;;;;;;;;;;;;8.44;67.12;94388.22;4192065;28;19979;-49
2023/04/11 01:26:44;;;;;;;;;;;;;;;8.46;66.96;94380.25;4193501;28;19935;-49
2023/04/11 01:28:46;;;;;;;;;;;;;;;8.46;66.81;94386.28;4193406;28;19971;-50
2023/04/11 01:30:47;;;;;;;;;;;;;;;8.23;67.58;94382.50;4192679;28;19978;-51
2023/04/11 01:32:49;;;;;;;;;;;;;;;8.32;67.58;94390.22;4192416;28;19979;-47
2023/04/11 01:34:51;;;;;;;;;;;;;;;8.31;67.40;94385.16;4192994;28;19932;-50
2023/04/11 01:36:53;;;;;;;;;;;;;;;8.25;67.70;94376.16;4192173;28;20023;-46
2023/04/11 01:38:54;;;;;;;;;;;;;;;8.15;67.75;94381.47;4192560;28;20002;-50
2023/04/11 01:40:56;;;;;;;;;;;;;;;8.15;67.97;94376.25;4192927;28;20423;-48
2023/04/11 01:42:58;;;;;;;;;;;;;;;8.25;67.71;94378.75;4189746;28;19925;-49
2023/04/11 01:45:00;;;;;;;;;;;;;;;8.16;67.30;94372.66;4192617;28;19925;-48
2023/04/11 01:47:02;;;;;;;;;;;;;;;8.16;68.07;94377.88;4192181;28;20199;-50
2023/04/11 01:49:03;;;;;;;;;;;;;;;8.21;68.01;94378.22;4192932;28;19989;-47
2023/04/11 01:51:06;;;;;;;;;;;;;;;8.25;67.15;94376.16;4190930;28;20502;-50
2023/04/11 01:53:07;;;;;;;;;;;;;;;8.34;67.35;94374.41;4193405;28;20019;-50
2023/04/11 01:55:09;;;;;;;;;;;;;;;8.31;67.19;94372.94;4192438;28;19928;-50
2023/04/11 01:57:10;;;;;;;;;;;;;;;8.10;67.78;94362.84;4188843;28;20034;-50
2023/04/11 01:59:12;;;;;;;;;;;;;;;8.11;67.77;94361.03;4182874;28;20279;-52
2023/04/11 02:01:16;;;;;;;;;;;;;;;8.13;67.65;94364.31;4192363;28;19925;-50
2023/04/11 02:03:19;;;;;;;;;;;;;;;8.18;68.16;94367.31;4191729;28;19924;-51
2023/04/11 02:05:22;;;;;;;;;;;;;;;8.15;67.87;94355.38;4191553;28;20034;-52
2023/04/11 02:07:24;;;;;;;;;;;;;;;8.17;67.80;94361.28;4193110;28;20009;-49
2023/04/11 02:09:25;;;;;;;;;;;;;;;8.18;67.24;94360.28;4192653;28;19928;-49
2023/04/11 02:11:27;;;;;;;;;;;;;;;8.16;67.70;94359.63;4193042;28;19970;-50
2023/04/11 02:13:28;;;;;;;;;;;;;;;8.14;67.53;94358.94;4192249;28;19924;-49
2023/04/11 02:15:30;;;;;;;;;;;;;;;8.15;68.26;94363.22;4192208;28;19925;-50
2023/04/11 02:17:31;;;;;;;;;;;;;;;8.20;67.55;94360.97;4191890;28;19967;-51
2023/04/11 02:19:33;;;;;;;;;;;;;;;8.14;67.44;94365.97;4191559;28;19924;-49
2023/04/11 02:21:34;;;;;;;;;;;;;;;8.12;67.81;94371.31;4191271;28;19985;-48
2023/04/11 02:23:36;;;;;;;;;;;;;;;8.10;68.40;94362.03;4185017;28;20168;-49
2023/04/11 02:25:38;;;;;;;;;;;;;;;8.10;67.93;94365.44;4188827;28;20448;-47
2023/04/11 02:27:39;;;;;;;;;;;;;;;8.01;68.10;94371.56;4191901;28;19932;-49
2023/04/11 02:29:41;;;;;;;;;;;;;;;7.98;68.00;94369.28;4190759;28;20004;-47
2023/04/11 02:31:42;;;;;;;;;;;;;;;7.99;67.91;94361.28;4191994;28;19939;-48
2023/04/11 02:33:44;;;;;;;;;;;;;;;7.93;68.47;94364.50;4192163;28;20395;-49
2023/04/11 02:35:46;;;;;;;;;;;;;;;7.84;68.46;94357.59;4192740;28;19997;-49
2023/04/11 02:37:47;;;;;;;;;;;;;;;7.94;68.39;94366.16;4191648;28;19955;-49
2023/04/11 02:39:49;;;;;;;;;;;;;;;7.93;67.83;94368.91;4190108;28;19925;-50
2023/04/11 02:41:50;;;;;;;;;;;;;;;7.87;68.36;94362.50;4192501;28;20127;-51
2023/04/11 02:43:52;;;;;;;;;;;;;;;7.88;68.42;94365.94;4189438;28;19924;-47
2023/04/11 02:45:54;;;;;;;;;;;;;;;7.83;67.97;94370.75;4191636;28;19997;-52
2023/04/11 02:48:12;;;;;;;;;;;;;;;7.76;68.22;94366.16;4182651;28;20327;-48
2023/04/11 02:50:14;;;;;;;;;;;;;;;7.83;68.39;94358.56;4192432;28;20200;-50
2023/04/11 02:52:16;;;;;;;;;;;;;;;7.90;67.67;94359.59;4192225;28;19928;-48
2023/04/11 02:54:18;;;;;;;;;;;;;;;7.90;67.40;94358.78;4190063;28;19931;-52
2023/04/11 02:56:20;;;;;;;;;;;;;;;7.96;67.09;94351.16;4192288;28;20254;-52
2023/04/11 02:58:24;;;;;;;;;;;;;;;8.04;67.37;94353.00;4186999;28;19925;-51
2023/04/11 03:00:26;;;;;;;;;;;;;;;7.92;67.56;94344.63;4191083;28;20359;-50
2023/04/11 03:02:29;;;;;;;;;;;;;;;7.95;67.00;94346.09;4191151;28;19932;-49
2023/04/11 03:04:31;;;;;;;;;;;;;;;7.95;67.24;94348.69;4192363;28;19924;-49
2023/04/11 03:06:32;;;;;;;;;;;;;;;7.99;66.76;94350.84;4191601;28;19951;-47
2023/04/11 03:08:38;;;;;;;;;;;;;;;7.95;67.04;94348.69;4191140;28;19924;-49
2023/04/11 03:10:39;;;;;;;;;;;;;;;7.92;67.36;94346.41;4191021;28;19925;-52
2023/04/11 03:12:41;;;;;;;;;;;;;;;7.94;67.92;94349.69;4191058;28;20540;-51
2023/04/11 03:14:42;;;;;;;;;;;;;;;8.05;66.82;94343.41;4190355;28;19989;-50
2023/04/11 03:16:44;;;;;;;;;;;;;;;8.15;66.98;94346.72;4190270;28;19959;-50
2023/04/11 03:18:45;;;;;;;;;;;;;;;8.23;66.43;94344.16;4189507;28;19924;-50
2023/04/11 03:20:47;;;;;;;;;;;;;;;8.26;66.06;94351.72;4191078;28;19924;-48
2023/04/11 03:22:49;;;;;;;;;;;;;;;8.15;66.62;94344.94;4172256;28;19986;-48
2023/04/11 03:24:50;;;;;;;;;;;;;;;8.10;66.13;94348.97;4188985;28;20511;-46
2023/04/11 03:26:52;;;;;;;;;;;;;;;8.02;66.39;94349.72;4191413;28;20015;-46
2023/04/11 03:28:53;;;;;;;;;;;;;;;8.00;66.95;94346.44;4192156;28;19924;-48
2023/04/11 03:30:55;;;;;;;;;;;;;;;8.03;66.88;94346.16;4191466;28;20394;-50
2023/04/11 03:32:59;;;;;;;;;;;;;;;8.01;66.13;94345.50;4191211;28;20365;-52
2023/04/11 03:35:01;;;;;;;;;;;;;;;8.03;66.55;94342.75;4192037;28;20051;-51
2023/04/11 03:37:03;;;;;;;;;;;;;;;7.99;66.86;94345.63;4192450;28;19929;-47
2023/04/11 03:39:05;;;;;;;;;;;;;;;7.82;66.96;94346.47;4191762;28;19934;-45
2023/04/11 03:41:06;;;;;;;;;;;;;;;7.72;67.64;94350.94;4192502;28;19998;-47
2023/04/11 03:43:08;;;;;;;;;;;;;;;7.78;67.22;94347.75;4193138;28;20060;-49
2023/04/11 03:45:09;;;;;;;;;;;;;;;7.83;67.16;94344.69;4194532;28;19944;-46
2023/04/11 03:47:11;;;;;;;;;;;;;;;7.87;66.84;94346.88;4194349;28;20409;-51
2023/04/11 03:49:12;;;;;;;;;;;;;;;7.81;66.73;94344.84;4195138;28;19978;-49
2023/04/11 03:51:14;;;;;;;;;;;;;;;7.82;67.09;94343.06;4194143;28;19924;-50
2023/04/11 03:53:15;;;;;;;;;;;;;;;7.87;67.45;94346.03;4194899;28;20010;-51
2023/04/11 03:55:17;;;;;;;;;;;;;;;7.89;67.30;94344.91;4194899;28;20442;-51
2023/04/11 03:57:18;;;;;;;;;;;;;;;7.89;66.37;94344.09;4194233;28;20406;-51
2023/04/11 03:59:20;;;;;;;;;;;;;;;7.89;66.65;94346.69;4194242;28;19971;-49
2023/04/11 04:01:22;;;;;;;;;;;;;;;7.94;66.52;94342.66;4194757;28;20003;-49
2023/04/11 04:03:23;;;;;;;;;;;;;;;7.90;66.62;94343.13;4193448;28;19928;-48
2023/04/11 04:05:25;;;;;;;;;;;;;;;7.73;66.92;94345.59;4195226;28;19929;-48
2023/04/11 04:07:27;;;;;;;;;;;;;;;7.73;67.33;94350.00;4194073;28;20414;-49
2023/04/11 04:09:28;;;;;;;;;;;;;;;7.67;67.00;94351.41;4194462;28;19967;-46
2023/04/11 04:11:30;;;;;;;;;;;;;;;7.57;67.60;94345.44;4193514;28;19965;-54
2023/04/11 04:13:32;;;;;;;;;;;;;;;7.55;67.87;94350.81;4193676;28;19985;-48
2023/04/11 04:15:33;;;;;;;;;;;;;;;7.52;68.23;94353.72;4194234;28;20070;-50
2023/04/11 04:17:35;;;;;;;;;;;;;;;7.56;67.82;94354.25;4194097;28;20364;-49
2023/04/11 04:19:36;;;;;;;;;;;;;;;7.48;68.02;94346.34;4194463;28;19936;-48
2023/04/11 04:21:38;;;;;;;;;;;;;;;7.44;67.99;94356.25;4194660;28;20235;-51
2023/04/11 04:23:46;;;;;;;;;;;;;;;7.41;68.75;94347.91;4194273;28;19928;-50
2023/04/11 04:25:56;;;;;;;;;;;;;;;7.52;68.20;94347.69;4185881;28;20424;-48
2023/04/11 04:27:59;;;;;;;;;;;;;;;7.63;68.19;94342.25;4193783;28;19929;-50
2023/04/11 04:30:02;;;;;;;;;;;;;;;7.72;67.71;94341.38;4192994;28;19932;-52
2023/04/11 04:32:09;;;;;;;;;;;;;;;7.66;67.67;94344.56;4193738;28;20361;-51
2023/04/11 04:34:11;;;;;;;;;;;;;;;7.64;67.72;94343.91;4194461;28;20027;-49
2023/04/11 04:36:16;;;;;;;;;;;;;;;7.52;68.09;94345.09;4194652;28;20001;-51
2023/04/11 04:38:18;;;;;;;;;;;;;;;7.43;68.08;94343.38;4194268;28;19925;-49
2023/04/11 04:40:20;;;;;;;;;;;;;;;7.38;68.67;94351.66;4193644;28;19960;-51
2023/04/11 04:42:22;;;;;;;;;;;;;;;7.39;68.57;94341.06;4193456;28;20061;-49
2023/04/11 04:44:24;;;;;;;;;;;;;;;7.34;68.63;94343.28;4192825;28;19925;-53
2023/04/11 04:46:25;;;;;;;;;;;;;;;7.33;68.58;94339.03;4194078;28;20636;-50
2023/04/11 04:48:27;;;;;;;;;;;;;;;7.42;68.60;94344.31;4193283;28;19925;-52
2023/04/11 04:50:28;;;;;;;;;;;;;;;7.51;67.91;94343.47;4194109;28;20028;-48
2023/04/11 04:52:30;;;;;;;;;;;;;;;7.56;67.31;94346.44;4193425;28;19940;-49
2023/04/11 04:54:32;;;;;;;;;;;;;;;7.41;68.15;94345.31;4193257;28;19978;-50
2023/04/11 04:56:33;;;;;;;;;;;;;;;7.29;68.50;94342.09;4190720;28;20003;-50
2023/04/11 04:58:35;;;;;;;;;;;;;;;7.35;68.23;94347.53;4193039;28;20046;-49
2023/04/11 05:00:36;;;;;;;;;;;;;;;7.45;68.50;94344.06;4193027;28;19929;-51
2023/04/11 05:02:39;;;;;;;;;;;;;;;7.45;67.68;94337.03;4193384;28;19986;-53
2023/04/11 05:04:41;;;;;;;;;;;;;;;7.56;67.48;94341.22;4194518;28;20381;-51
2023/04/11 05:06:43;;;;;;;;;;;;;;;7.60;67.74;94337.34;4193840;28;19928;-53
2023/04/11 05:08:45;;;;;;;;;;;;;;;7.59;67.46;94338.28;4192241;28;19962;-52
2023/04/11 05:10:46;;;;;;;;;;;;;;;7.55;67.51;94344.78;4192565;28;19959;-52
2023/04/11 05:12:48;;;;;;;;;;;;;;;7.63;67.52;94339.63;4194223;28;19950;-50
2023/04/11 05:14:49;;;;;;;;;;;;;;;7.52;67.56;94332.06;4192424;28;19925;-49
2023/04/11 05:16:51;;;;;;;;;;;;;;;7.43;67.81;94343.38;4193306;28;19985;-50
2023/04/11 05:18:53;;;;;;;;;;;;;;;7.26;68.17;94337.19;4193481;28;19946;-50
2023/04/11 05:20:54;;;;;;;;;;;;;;;7.41;68.17;94334.88;4193642;28;19983;-51
2023/04/11 05:22:56;;;;;;;;;;;;;;;7.44;67.72;94342.41;4193271;28;19988;-51
2023/04/11 05:24:57;;;;;;;;;;;;;;;7.40;67.88;94341.91;4189858;28;19981;-52
2023/04/11 05:26:59;;;;;;;;;;;;;;;7.30;68.21;94338.53;4191300;28;20143;-50
2023/04/11 05:29:00;;;;;;;;;;;;;;;7.32;68.50;94332.19;4194084;28;19928;-50
2023/04/11 05:31:02;;;;;;;;;;;;;;;7.28;68.45;94333.47;4192152;28;19941;-51
2023/04/11 05:33:04;;;;;;;;;;;;;;;7.45;68.08;94337.03;4192147;28;20034;-56
2023/04/11 05:35:06;;;;;;;;;;;;;;;7.48;67.90;94341.13;4193834;28;19969;-58
2023/04/11 05:37:07;;;;;;;;;;;;;;;7.45;67.33;94333.63;4193112;28;19992;-56
2023/04/11 05:39:09;;;;;;;;;;;;;;;7.51;68.22;94333.03;4192878;28;19924;-55
2023/04/11 05:41:11;;;;;;;;;;;;;;;7.61;67.04;94332.94;4193202;28;20065;-58
2023/04/11 05:43:13;;;;;;;;;;;;;;;7.62;67.20;94330.19;4193197;28;19966;-57
2023/04/11 05:45:15;;;;;;;;;;;;;;;7.56;67.01;94336.00;4192576;28;20501;-56
2023/04/11 05:47:17;;;;;;;;;;;;;;;7.63;66.92;94318.78;4192470;28;19967;-59
2023/04/11 05:49:18;;;;;;;;;;;;;;;7.69;67.25;94323.41;4193325;28;20438;-56
2023/04/11 05:51:20;;;;;;;;;;;;;;;7.72;66.55;94324.88;4192873;28;19925;-57
2023/04/11 05:53:21;;;;;;;;;;;;;;;7.69;66.96;94322.59;4193420;28;20447;-56
2023/04/11 05:55:23;;;;;;;;;;;;;;;7.66;67.11;94313.28;4192613;28;20001;-57
2023/04/11 05:57:24;;;;;;;;;;;;;;;7.73;66.94;94322.13;4192784;28;19952;-59
2023/04/11 05:59:27;;;;;;;;;;;;;;;7.93;66.52;94314.13;4191672;28;20376;-58
2023/04/11 06:01:29;;;;;;;;;;;;;;;8.03;66.11;94327.09;4192784;28;19931;-59
2023/04/11 06:03:30;;;;;;;;;;;;;;;8.14;65.82;94330.25;4191022;28;19932;-58
2023/04/11 06:05:33;;;;;;;;;;;;;;;8.04;65.57;94324.31;4189309;28;20514;-56
2023/04/11 06:07:35;;;;;;;;;;;;;;;8.19;65.47;94320.19;4185142;28;20023;-58
2023/04/11 06:09:38;;;;;;;;;;;;;;;8.23;64.58;94306.81;4192781;28;20015;-58
2023/04/11 06:11:39;;;;;;;;;;;;;;;8.11;65.42;94316.69;4191832;28;19932;-52
2023/04/11 06:13:41;;;;;;;;;;;;;;;8.19;65.36;94317.59;4191845;28;19986;-50
2023/04/11 06:15:42;;;;;;;;;;;;;;;8.27;65.25;94310.75;4192481;28;19970;-49
2023/04/11 06:17:44;;;;;;;;;;;;;;;8.35;65.60;94303.00;4191811;28;19928;-54
2023/04/11 06:19:45;;;;;;;;;;;;;;;8.42;64.39;94298.00;4192250;28;19925;-51
2023/04/11 06:21:47;;;;;;;;;;;;;;;8.63;64.50;94305.44;4192908;28;19925;-51
2023/04/11 06:23:49;;;;;;;;;;;;;;;8.40;64.50;94301.56;4192905;28;19981;-51
2023/04/11 06:25:50;;;;;;;;;;;;;;;8.46;64.74;94302.75;4190222;28;20353;-51
2023/04/11 06:27:52;;;;;;;;;;;;;;;8.51;64.37;94303.09;4191347;28;19928;-52
2023/04/11 06:29:53;;;;;;;;;;;;;;;8.54;64.85;94296.72;4191846;28;19924;-51
2023/04/11 06:31:55;;;;;;;;;;;;;;;8.45;65.09;94305.50;4191780;28;19936;-49
2023/04/11 06:33:56;;;;;;;;;;;;;;;8.47;64.89;94300.94;4192015;28;20249;-50
2023/04/11 06:35:58;;;;;;;;;;;;;;;8.40;64.95;94311.16;4191264;28;20015;-48
2023/04/11 06:38:00;;;;;;;;;;;;;;;8.46;65.02;94304.53;4189387;28;19929;-51
2023/04/11 06:40:04;;;;;;;;;;;;;;;8.57;64.40;94296.44;4191615;28;19936;-51
2023/04/11 06:42:05;;;;;;;;;;;;;;;8.74;64.30;94292.09;4192413;28;20269;-49
2023/04/11 06:44:07;;;;;;;;;;;;;;;8.88;63.69;94288.84;4192871;28;20015;-56
2023/04/11 06:46:09;;;;;;;;;;;;;;;8.81;63.76;94278.22;4189132;28;19937;-57
2023/04/11 06:48:11;;;;;;;;;;;;;;;8.75;63.71;94291.91;4187394;28;20328;-57
2023/04/11 06:50:13;;;;;;;;;;;;;;;8.65;64.17;94291.25;4185517;28;19932;-57
2023/04/11 06:52:14;;;;;;;;;;;;;;;8.77;63.68;94289.97;4192086;28;19924;-57
2023/04/11 06:54:18;;;;;;;;;;;;;;;8.82;62.45;94279.88;4192460;28;20335;-57
2023/04/11 06:56:19;;;;;;;;;;;;;;;8.78;62.53;94285.59;4191426;28;19928;-59
2023/04/11 06:58:21;;;;;;;;;;;;;;;8.68;63.41;94293.53;4191059;28;19931;-60
2023/04/11 07:00:23;;;;;;;;;;;;;;;8.82;62.15;94297.34;4191063;28;19924;-56
2023/04/11 07:02:25;;;;;;;;;;;;;;;8.86;62.15;94300.44;4191139;28;20401;-58
2023/04/11 07:04:26;;;;;;;;;;;;;;;8.68;62.21;94300.56;4191508;28;19943;-56
2023/04/11 07:06:29;;;;;;;;;;;;;;;8.54;63.15;94297.56;4191798;28;19924;-59
2023/04/11 07:08:30;;;;;;;;;;;;;;;8.75;63.74;94293.72;4191639;28;19988;-57
2023/04/11 07:10:32;;;;;;;;;;;;;;;8.73;62.89;94293.91;4191515;28;19932;-60
2023/04/11 07:12:33;;;;;;;;;;;;;;;8.87;62.64;94302.91;4191765;28;20568;-57
2023/04/11 07:14:35;;;;;;;;;;;;;;;8.71;62.50;94289.78;4191867;28;19928;-57
2023/04/11 07:16:36;;;;;;;;;;;;;;;8.80;62.98;94294.88;4195569;28;19994;-58
2023/04/11 07:18:38;;;;;;;;;;;;;;;8.81;63.31;94286.06;4194667;28;20080;-64
2023/04/11 07:20:40;;;;;;;;;;;;;;;8.86;62.07;94282.97;4195484;28;20310;-58
2023/04/11 07:22:42;;;;;;;;;;;;;;;8.72;62.20;94294.03;4195218;28;20023;-60
2023/04/11 07:24:45;;;;;;;;;;;;;;;8.73;63.47;94295.66;4195215;28;19928;-58
2023/04/11 07:26:49;;;;;;;;;;;;;;;8.77;63.06;94294.38;4192462;28;19990;-60
2023/04/11 07:28:51;;;;;;;;;;;;;;;8.96;62.77;94291.50;4192660;28;19924;-58
2023/04/11 07:30:52;;;;;;;;;;;;;;;8.97;62.38;94287.94;4194934;28;19925;-52
2023/04/11 07:32:54;;;;;;;;;;;;;;;9.06;61.89;94278.31;4185640;28;20360;-54
2023/04/11 07:34:56;;;;;;;;;;;;;;;9.10;61.77;94273.56;4195218;28;20015;-52
2023/04/11 07:36:59;;;;;;;;;;;;;;;9.27;61.33;94275.25;4195055;28;20422;-53
2023/04/11 07:39:03;;;;;;;;;;;;;;;9.34;61.33;94257.94;4195200;28;20373;-54
2023/04/11 07:41:05;;;;;;;;;;;;;;;9.49;60.94;94258.09;4195277;28;19967;-51
2023/04/11 07:43:06;;;;;;;;;;;;;;;9.42;60.41;94268.41;4192131;28;19932;-50
2023/04/11 07:45:08;;;;;;;;;;;;;;;9.56;60.32;94266.13;4192896;28;19971;-52
2023/04/11 07:47:09;;;;;;;;;;;;;;;9.51;60.04;94277.06;4193017;28;19959;-53
2023/04/11 07:49:11;;;;;;;;;;;;;;;9.52;59.91;94260.38;4194774;28;19967;-52
2023/04/11 07:51:12;;;;;;;;;;;;;;;9.47;60.81;94262.69;4195509;28;19968;-51
2023/04/11 07:53:14;;;;;;;;;;;;;;;9.55;60.78;94259.22;4194233;28;19928;-51
2023/04/11 07:55:16;;;;;;;;;;;;;;;9.49;61.02;94270.38;4194916;28;19925;-49
2023/04/11 07:57:17;;;;;;;;;;;;;;;9.49;61.51;94255.50;4194603;28;19947;-52
2023/04/11 07:59:19;;;;;;;;;;;;;;;9.39;61.64;94257.44;4194223;28;19924;-52
2023/04/11 08:01:21;;;;;;;;;;;;;;;9.67;61.00;94257.13;4194242;28;19986;-51
2023/04/11 08:03:23;;;;;;;;;;;;;;;9.65;59.91;94254.66;4192977;28;19925;-52
2023/04/11 08:05:26;;;;;;;;;;;;;;;9.75;60.30;94254.50;4192780;28;19929;-51
2023/04/11 08:07:27;;;;;;;;;;;;;;;9.83;59.17;94247.47;4194278;28;19995;-54
2023/04/11 08:09:29;;;;;;;;;;;;;;;9.85;59.07;94244.66;4193312;28;20010;-52
2023/04/11 08:11:31;;;;;;;;;;;;;;;9.78;59.60;94248.94;4193208;28;19925;-51
2023/04/11 08:13:32;;;;;;;;;;;;;;;9.75;58.73;94254.50;4193797;28;19947;-55
2023/04/11 08:15:35;;;;;;;;;;;;;;;9.78;58.51;94248.94;4193269;28;19982;-53
2023/04/11 08:17:37;;;;;;;;;;;;;;;9.71;59.29;94233.09;4192592;28;20537;-52
2023/04/11 08:19:39;;;;;;;;;;;;;;;9.73;58.39;94238.97;4194957;28;20392;-54
2023/04/11 08:21:41;;;;;;;;;;;;;;;9.79;57.79;94234.88;4194516;28;19933;-51
2023/04/11 08:23:42;;;;;;;;;;;;;;;9.93;58.33;94225.53;4194821;28;20003;-50
2023/04/11 08:25:44;;;;;;;;;;;;;;;10.05;57.58;94218.97;4194274;28;19924;-51
2023/04/11 08:27:45;;;;;;;;;;;;;;;9.95;57.07;94223.56;4193199;28;19924;-52
2023/04/11 08:29:47;;;;;;;;;;;;;;;9.53;58.07;94221.97;4192355;28;19947;-49
2023/04/11 08:31:48;;;;;;;;;;;;;;;9.60;59.18;94217.75;4193900;28;19954;-52
2023/04/11 08:33:50;;;;;;;;;;;;;;;9.58;58.15;94219.69;4191312;28;19997;-48
2023/04/11 08:35:52;;;;;;;;;;;;;;;9.32;58.70;94219.88;4194269;28;19931;-49
2023/04/11 08:37:53;;;;;;;;;;;;;;;9.11;59.15;94213.31;4191495;28;19948;-49
2023/04/11 08:39:55;;;;;;;;;;;;;;;9.05;59.96;94210.53;4194669;28;20008;-58
2023/04/11 08:41:58;;;;;;;;;;;;;;;9.27;59.27;94209.06;4194434;28;19963;-57
2023/04/11 08:44:00;;;;;;;;;;;;;;;9.60;58.16;94205.47;4194557;28;20431;-59
2023/04/11 08:46:04;;;;;;;;;;;;;;;9.90;56.89;94204.94;4189857;28;20401;-57
2023/04/11 08:48:06;;;;;;;;;;;;;;;9.72;57.78;94203.34;4183462;28;20016;-58
2023/04/11 08:50:08;;;;;;;;;;;;;;;8.92;59.57;94208.38;4193884;28;19976;-56
2023/04/11 08:52:10;;;;;;;;;;;;;;;8.96;59.79;94209.69;4193299;28;20025;-55
2023/04/11 08:54:12;;;;;;;;;;;;;;;9.07;60.01;94198.94;4192892;28;19943;-57
2023/04/11 08:56:15;;;;;;;;;;;;;;;9.29;59.58;94194.03;4191722;28;20024;-60
2023/04/11 08:58:16;;;;;;;;;;;;;;;9.56;58.12;94203.34;4193357;28;20014;-62
2023/04/11 09:00:22;;;;;;;;;;;;;;;9.09;57.80;94194.34;4192545;28;20319;-59
2023/04/11 09:02:23;;;;;;;;;;;;;;;9.46;58.48;94198.28;4192960;28;19990;-58
2023/04/11 09:04:27;;;;;;;;;;;;;;;9.76;57.67;94186.31;4192839;28;19924;-55
2023/04/11 09:06:29;;;;;;;;;;;;;;;10.13;56.86;94176.25;4192445;28;19925;-58
2023/04/11 09:08:36;;;;;;;;;;;;;;;10.18;56.11;94198.31;4191413;28;19959;-60
2023/04/11 09:10:38;;;;;;;;;;;;;;;10.00;56.52;94174.16;4193602;28;19925;-60
2023/04/11 09:12:40;;;;;;;;;;;;;;;10.21;56.46;94181.47;4194105;28;19924;-58
2023/04/11 09:14:41;;;;;;;;;;;;;;;10.41;55.47;94172.25;4192804;28;20006;-54
2023/04/11 09:16:59;;;;;;;;;;;;;;;10.58;54.45;94167.75;4192909;28;19928;-55
2023/04/11 09:19:01;;;;;;;;;;;;;;;10.75;54.57;94163.22;4194188;28;20364;-54
2023/04/11 09:21:03;;;;;;;;;;;;;;;10.77;53.99;94173.53;4192508;28;20455;-52
2023/04/11 09:23:05;;;;;;;;;;;;;;;10.84;53.72;94161.34;4193139;28;19925;-56
2023/04/11 09:25:06;;;;;;;;;;;;;;;11.11;53.61;94164.47;4196703;28;19962;-51
2023/04/11 09:27:12;;;;;;;;;;;;;;;11.15;52.46;94160.50;4195764;28;19967;-52
2023/04/11 09:29:34;;;;;;;;;;;;;;;11.64;52.12;94149.59;4192130;28;19924;-50
2023/04/11 09:31:39;;;;;;;;;;;;;;;11.69;51.50;94149.88;4189373;28;19925;-49
2023/04/11 09:33:54;;;;;;;;;;;;;;;11.43;51.97;94143.22;4186796;28;19943;-54
2023/04/11 09:35:56;;;;;;;;;;;;;;;11.37;52.20;94156.22;4193133;28;19979;-49
2023/04/11 09:37:57;;;;;;;;;;;;;;;10.22;55.32;94156.94;4188191;28;19959;-52
2023/04/11 09:39:59;;;;;;;;;;;;;;;9.97;56.09;94145.72;4192220;28;19939;-49
2023/04/11 09:42:02;;;;;;;;;;;;;;;10.19;55.33;94144.97;4193153;28;20030;-49
2023/04/11 09:44:04;;;;;;;;;;;;;;;10.00;55.54;94132.28;4191627;28;19932;-54
2023/04/11 09:46:09;;;;;;;;;;;;;;;10.29;55.48;94136.13;4192399;28;20326;-51
2023/04/11 09:48:10;;;;;;;;;;;;;;;10.35;54.51;94122.38;4192537;28;20031;-48
2023/04/11 09:50:12;;;;;;;;;;;;;;;10.06;55.13;94121.16;4191738;28;20458;-51
2023/04/11 09:52:13;;;;;;;;;;;;;;;10.36;54.97;94119.56;4193539;28;19943;-52
2023/04/11 09:54:15;;;;;;;;;;;;;;;10.34;54.10;94115.50;4191827;28;19924;-51
2023/04/11 09:56:16;;;;;;;;;;;;;;;10.21;54.26;94119.44;4191610;28;19974;-52
2023/04/11 09:58:18;;;;;;;;;;;;;;;9.93;54.77;94115.66;4192856;28;19931;-54
2023/04/11 10:00:20;;;;;;;;;;;;;;;10.28;55.11;94098.63;4189510;28;19932;-47
2023/04/11 10:02:22;;;;;;;;;;;;;;;10.56;54.83;94106.88;4192345;28;19924;-51
2023/04/11 10:04:26;;;;;;;;;;;;;;;10.74;53.34;94103.97;4193397;28;19978;-47
2023/04/11 10:06:32;;;;;;;;;;;;;;;11.04;53.07;94104.88;4193462;28;19981;-48
2023/04/11 10:08:35;;;;;;;;;;;;;;;11.35;51.61;94090.84;4192021;28;19943;-49
2023/04/11 10:10:37;;;;;;;;;;;;;;;11.72;50.91;94102.25;4191274;28;19932;-54
2023/04/11 10:12:38;;;;;;;;;;;;;;;10.85;51.28;94100.13;4190944;28;19924;-48
2023/04/11 10:14:40;;;;;;;;;;;;;;;10.35;52.86;94112.72;4191795;28;19971;-51
2023/04/11 10:17:02;;;;;;;;;;;;;;;10.56;53.35;94099.00;4191616;28;19924;-50
2023/04/11 10:19:03;;;;;;;;;;;;;;;10.78;52.04;94093.94;4193056;28;19933;-52
2023/04/11 10:21:11;;;;;;;;;;;;;;;10.98;51.30;94091.66;4192993;28;19925;-49
2023/04/11 10:23:12;;;;;;;;;;;;;;;11.40;50.35;94072.78;4191647;28;19924;-50
2023/04/11 10:25:17;;;;;;;;;;;;;;;11.81;50.14;94079.41;4192582;28;19928;-49
2023/04/11 10:27:39;;;;;;;;;;;;;;;11.39;50.27;94073.75;4192687;28;19955;-49
2023/04/11 10:29:47;;;;;;;;;;;;;;;11.29;50.68;94075.81;4191155;28;20249;-52
2023/04/11 10:32:07;;;;;;;;;;;;;;;11.34;50.96;94070.88;4188795;28;19928;-53
2023/04/11 10:34:13;;;;;;;;;;;;;;;11.52;51.35;94053.97;4191640;28;19929;-53
2023/04/11 10:36:14;;;;;;;;;;;;;;;12.05;50.55;94055.50;4192189;28;20543;-49
2023/04/11 10:38:35;;;;;;;;;;;;;;;11.84;50.11;94063.28;4189166;28;19930;-51
2023/04/11 10:40:36;;;;;;;;;;;;;;;12.19;48.36;94053.84;4191705;28;19925;-53
2023/04/11 10:42:38;;;;;;;;;;;;;;;11.77;47.81;94052.69;4189145;28;19970;-54
2023/04/11 10:44:40;;;;;;;;;;;;;;;11.62;48.62;94051.88;4191150;28;20435;-56